createdAt,value
2019-03-16T00:02:17.339Z,9.47
2019-03-16T00:04:48.189Z,7.10
2019-03-16T00:07:32.224Z,7.10
2019-03-16T00:09:51.555Z,9.00
2019-03-16T00:12:28.837Z,8.17
2019-03-16T00:14:59.947Z,6.83
2019-03-16T00:17:30.916Z,5.73
2019-03-16T00:20:04.311Z,9.60
2019-03-16T00:22:35.856Z,9.17
2019-03-16T00:25:08.916Z,7.00
2019-03-16T00:27:39.757Z,7.33
2019-03-16T00:30:11.553Z,7.57
2019-03-16T00:32:43.690Z,4.00
2019-03-16T00:35:14.457Z,6.37
2019-03-16T00:37:45.894Z,5.73
2019-03-16T00:40:18.440Z,8.10
2019-03-16T00:42:50.135Z,6.63
2019-03-16T00:45:21.444Z,6.77
2019-03-16T00:47:59.316Z,4.77
2019-03-16T00:50:32.955Z,8.83
2019-03-16T00:53:04.611Z,8.13
2019-03-16T00:55:35.454Z,6.93
2019-03-16T00:58:06.351Z,8.47
2019-03-16T01:00:37.425Z,5.90
2019-03-16T01:03:08.273Z,9.50
2019-03-16T01:05:39.201Z,7.60
2019-03-16T01:08:10.506Z,5.37
2019-03-16T01:10:41.399Z,6.20
2019-03-16T01:13:12.243Z,8.57
2019-03-16T01:15:43.111Z,8.77
2019-03-16T01:18:14.386Z,5.37
2019-03-16T01:20:45.187Z,10.53
2019-03-16T01:23:17.826Z,10.70
2019-03-16T01:25:49.262Z,4.87
2019-03-16T01:28:20.058Z,9.00
2019-03-16T01:30:51.997Z,6.83
2019-03-16T01:33:24.299Z,10.63
2019-03-16T01:35:55.177Z,5.53
2019-03-16T01:38:26.711Z,8.57
2019-03-16T01:40:57.531Z,7.13
2019-03-16T01:43:32.163Z,9.50
2019-03-16T01:46:03.406Z,4.33
2019-03-16T01:48:34.308Z,5.97
2019-03-16T01:51:05.248Z,7.23
2019-03-16T01:53:36.457Z,6.43
2019-03-16T01:56:07.457Z,5.87
2019-03-16T01:58:38.301Z,6.50
2019-03-16T02:01:10.798Z,6.13
2019-03-16T02:03:47.123Z,5.57
2019-03-16T02:06:18.009Z,5.60
2019-03-16T02:08:49.063Z,11.80
2019-03-16T02:11:20.503Z,5.80
2019-03-16T02:13:52.729Z,6.63
2019-03-16T02:16:23.966Z,4.33
2019-03-16T02:18:54.766Z,8.43
2019-03-16T02:21:25.793Z,10.50
2019-03-16T02:23:56.735Z,8.70
2019-03-16T02:26:27.960Z,5.97
2019-03-16T02:28:59.119Z,7.73
2019-03-16T02:31:29.912Z,9.97
2019-03-16T02:34:00.808Z,6.20
2019-03-16T02:36:31.644Z,4.83
2019-03-16T02:39:02.528Z,5.30
2019-03-16T02:41:34.822Z,9.07
2019-03-16T02:44:05.625Z,5.80
2019-03-16T02:46:43.128Z,11.43
2019-03-16T02:49:13.884Z,7.33
2019-03-16T02:51:45.812Z,6.17
2019-03-16T02:54:16.673Z,4.43
2019-03-16T02:56:48.116Z,9.30
2019-03-16T02:59:18.878Z,8.20
2019-03-16T03:01:49.686Z,8.70
2019-03-16T03:04:20.549Z,7.13
2019-03-16T03:06:51.353Z,15.93
2019-03-16T03:09:25.451Z,10.73
2019-03-16T03:11:59.003Z,6.87
2019-03-16T03:14:29.863Z,7.27
2019-03-16T03:17:00.633Z,10.93
2019-03-16T03:19:32.457Z,6.83
2019-03-16T03:22:03.222Z,6.63
2019-03-16T03:24:34.437Z,10.77
2019-03-16T03:27:05.218Z,12.20
2019-03-16T03:29:36.041Z,8.87
2019-03-16T03:32:08.529Z,8.37
2019-03-16T03:34:39.334Z,10.80
2019-03-16T03:37:10.795Z,5.20
2019-03-16T03:39:43.584Z,9.87
2019-03-16T03:42:17.036Z,7.50
2019-03-16T03:44:47.814Z,5.93
2019-03-16T03:47:19.059Z,8.43
2019-03-16T03:49:49.829Z,9.03
2019-03-16T03:52:20.673Z,13.53
2019-03-16T03:54:51.432Z,9.60
2019-03-16T03:57:27.907Z,7.23
2019-03-16T03:59:58.815Z,8.83
2019-03-16T04:02:29.636Z,8.97
2019-03-16T04:05:00.506Z,7.67
2019-03-16T04:07:31.330Z,6.87
2019-03-16T04:10:02.164Z,6.60
2019-03-16T04:12:32.902Z,7.37
2019-03-16T04:15:03.751Z,4.70
2019-03-16T04:17:34.646Z,8.43
2019-03-16T04:20:06.648Z,10.53
2019-03-16T04:22:40.420Z,6.57
2019-03-16T04:25:11.254Z,6.97
2019-03-16T04:27:44.555Z,7.57
2019-03-16T04:30:15.383Z,9.40
2019-03-16T04:32:46.162Z,9.00
2019-03-16T04:35:17.592Z,5.83
2019-03-16T04:37:54.171Z,4.93
2019-03-16T04:40:25.244Z,6.10
2019-03-16T04:42:56.062Z,5.43
2019-03-16T04:45:26.909Z,5.50
2019-03-16T04:47:57.874Z,14.10
2019-03-16T04:50:29.029Z,8.80
2019-03-16T04:53:00.027Z,13.33
2019-03-16T04:55:30.853Z,6.23
2019-03-16T04:58:01.711Z,7.27
2019-03-16T05:00:32.574Z,7.57
2019-03-16T05:03:03.608Z,5.73
2019-03-16T05:05:34.473Z,9.87
2019-03-16T05:08:05.814Z,12.40
2019-03-16T05:10:46.983Z,7.77
2019-03-16T05:13:18.790Z,7.80
2019-03-16T05:15:50.918Z,9.80
2019-03-16T05:18:22.256Z,9.17
2019-03-16T05:20:54.240Z,7.97
2019-03-16T05:23:25.148Z,5.63
2019-03-16T05:25:57.861Z,4.87
2019-03-16T05:28:28.692Z,10.43
2019-03-16T05:31:02.562Z,6.63
2019-03-16T05:33:33.328Z,9.57
2019-03-16T05:36:04.162Z,6.00
2019-03-16T05:38:35.353Z,5.00
2019-03-16T05:41:06.173Z,8.53
2019-03-16T05:43:39.365Z,5.57
2019-03-16T05:46:10.509Z,5.83
2019-03-16T05:48:43.166Z,4.73
2019-03-16T05:51:20.512Z,11.37
2019-03-16T05:53:51.617Z,12.00
2019-03-16T05:56:23.961Z,10.73
2019-03-16T05:58:54.727Z,9.50
2019-03-16T06:01:26.423Z,6.67
2019-03-16T06:03:57.262Z,9.47
2019-03-16T06:06:30.791Z,6.20
2019-03-16T06:09:04.974Z,13.00
2019-03-16T06:11:40.000Z,7.70
2019-03-16T06:14:10.826Z,6.50
2019-03-16T06:16:42.043Z,6.27
2019-03-16T06:19:12.797Z,7.43
2019-03-16T06:21:43.993Z,10.53
2019-03-16T06:24:17.552Z,9.13
2019-03-16T06:26:57.157Z,6.17
2019-03-16T06:29:29.578Z,7.57
2019-03-16T06:32:02.261Z,10.37
2019-03-16T06:34:35.516Z,5.73
2019-03-16T06:37:06.502Z,10.30
2019-03-16T06:39:39.935Z,6.53
2019-03-16T06:42:11.447Z,6.20
2019-03-16T06:44:42.350Z,8.37
2019-03-16T06:47:13.583Z,4.23
2019-03-16T06:50:16.642Z,8.83
2019-03-16T06:52:47.926Z,5.90
2019-03-16T06:55:22.132Z,7.40
2019-03-16T06:57:53.126Z,7.83
2019-03-16T07:00:24.018Z,7.70
2019-03-16T07:02:55.050Z,6.13
2019-03-16T07:05:37.483Z,9.30
2019-03-16T07:07:58.544Z,7.10
2019-03-16T07:10:29.730Z,12.33
2019-03-16T07:13:00.586Z,7.73
2019-03-16T07:15:31.489Z,10.63
2019-03-16T07:18:02.959Z,9.77
2019-03-16T07:20:35.696Z,9.13
2019-03-16T07:23:06.617Z,7.37
2019-03-16T07:25:37.737Z,5.77
2019-03-16T07:28:09.934Z,9.17
2019-03-16T07:30:40.689Z,8.60
2019-03-16T07:33:11.529Z,6.10
2019-03-16T07:35:43.094Z,6.50
2019-03-16T07:38:15.883Z,6.37
2019-03-16T07:40:46.976Z,9.00
2019-03-16T07:43:18.254Z,9.53
2019-03-16T07:45:55.328Z,6.90
2019-03-16T07:48:28.984Z,6.50
2019-03-16T07:51:01.731Z,12.40
2019-03-16T07:53:34.163Z,5.57
2019-03-16T07:56:10.487Z,4.53
2019-03-16T07:58:39.221Z,7.73
2019-03-16T08:01:10.076Z,7.53
2019-03-16T08:03:41.130Z,5.23
2019-03-16T08:06:12.452Z,6.47
2019-03-16T08:08:47.719Z,7.80
2019-03-16T08:11:18.469Z,3.60
2019-03-16T08:13:49.780Z,5.67
2019-03-16T08:16:21.719Z,5.30
2019-03-16T08:18:55.546Z,6.00
2019-03-16T08:21:27.006Z,6.00
2019-03-16T08:23:58.043Z,5.30
2019-03-16T08:26:29.979Z,5.03
2019-03-16T08:29:03.563Z,4.53
2019-03-16T08:31:35.368Z,5.20
2019-03-16T08:34:09.156Z,5.07
2019-03-16T08:36:39.924Z,6.30
2019-03-16T08:39:16.348Z,4.47
2019-03-16T08:41:47.170Z,5.90
2019-03-16T08:44:18.045Z,6.57
2019-03-16T08:46:52.026Z,4.60
2019-03-16T08:49:34.077Z,10.03
2019-03-16T08:52:08.181Z,3.37
2019-03-16T08:54:57.533Z,3.53
2019-03-16T08:57:28.336Z,6.50
2019-03-16T09:00:00.918Z,7.80
2019-03-16T09:02:31.787Z,4.47
2019-03-16T09:05:14.044Z,3.37
2019-03-16T09:07:45.038Z,5.37
2019-03-16T09:10:18.686Z,4.70
2019-03-16T09:12:55.512Z,4.20
2019-03-16T09:15:27.137Z,2.93
2019-03-16T09:18:01.094Z,3.63
2019-03-16T09:20:35.230Z,2.80
2019-03-16T09:23:06.517Z,4.03
2019-03-16T09:25:47.827Z,2.40
2019-03-16T09:28:21.219Z,7.17
2019-03-16T09:30:52.444Z,2.43
2019-03-16T09:33:23.691Z,2.97
2019-03-16T09:35:55.024Z,1.90
2019-03-16T09:38:26.153Z,2.60
2019-03-16T09:41:11.581Z,4.90
2019-03-16T09:43:41.088Z,2.40
2019-03-16T09:46:17.745Z,1.80
2019-03-16T09:48:48.960Z,5.27
2019-03-16T09:51:21.615Z,1.70
2019-03-16T09:53:54.051Z,4.17
2019-03-16T09:56:25.237Z,2.20
2019-03-16T09:58:56.335Z,3.07
2019-03-16T10:01:53.782Z,1.60
2019-03-16T10:04:33.053Z,1.60
2019-03-16T10:07:07.823Z,1.13
2019-03-16T10:09:51.435Z,1.60
2019-03-16T10:12:24.991Z,1.60
2019-03-16T10:15:03.765Z,1.87
2019-03-16T10:17:34.897Z,1.73
2019-03-16T10:20:11.364Z,1.67
2019-03-16T10:22:42.470Z,1.57
2019-03-16T10:25:16.039Z,1.70
2019-03-16T10:27:51.370Z,2.27
2019-03-16T10:30:22.644Z,2.77
2019-03-16T10:32:55.607Z,1.80
2019-03-16T10:35:28.237Z,1.90
2019-03-16T10:38:01.511Z,4.40
2019-03-16T10:40:32.316Z,2.20
2019-03-16T10:43:03.448Z,2.40
2019-03-16T10:45:36.564Z,2.83
2019-03-16T10:48:10.696Z,1.60
2019-03-16T10:50:47.894Z,2.30
2019-03-16T10:53:19.421Z,2.90
2019-03-16T10:55:56.223Z,1.93
2019-03-16T10:58:40.372Z,1.80
2019-03-16T11:01:20.949Z,2.43
2019-03-16T11:03:57.642Z,2.67
2019-03-16T11:06:28.592Z,1.90
2019-03-16T11:09:00.208Z,1.80
2019-03-16T11:11:40.802Z,1.57
2019-03-16T11:14:14.616Z,2.33
2019-03-16T11:16:47.070Z,2.07
2019-03-16T11:19:23.419Z,1.80
2019-03-16T11:22:06.546Z,1.63
2019-03-16T11:24:42.742Z,1.80
2019-03-16T11:27:17.159Z,1.80
2019-03-16T11:29:49.337Z,1.80
2019-03-16T11:32:23.693Z,1.60
2019-03-16T11:35:02.607Z,1.67
2019-03-16T11:37:37.894Z,1.47
2019-03-16T11:40:15.811Z,3.00
2019-03-16T11:42:47.881Z,1.33
2019-03-16T11:45:22.213Z,1.70
2019-03-16T11:47:56.199Z,3.13
2019-03-16T11:50:34.140Z,1.00
2019-03-16T11:53:06.528Z,1.93
2019-03-16T11:55:38.008Z,3.63
2019-03-16T11:58:08.942Z,1.43
2019-03-16T12:00:40.990Z,3.40
2019-03-16T12:03:12.061Z,10.10
2019-03-16T12:05:48.056Z,1.30
2019-03-16T12:08:20.359Z,2.43
2019-03-16T12:10:51.186Z,2.30
2019-03-16T12:14:41.035Z,3.10
2019-03-16T12:17:15.170Z,1.10
2019-03-16T12:19:46.021Z,8.03
2019-03-16T12:22:18.470Z,6.17
2019-03-16T12:24:50.008Z,1.30
2019-03-16T12:27:22.041Z,2.20
2019-03-16T12:29:52.850Z,1.70
2019-03-16T12:32:25.165Z,1.47
2019-03-16T12:34:58.239Z,1.37
2019-03-16T12:37:32.322Z,1.40
2019-03-16T12:40:15.959Z,1.70
2019-03-16T12:42:58.446Z,1.90
2019-03-16T12:45:29.557Z,1.83
2019-03-16T12:48:00.551Z,3.00
2019-03-16T12:50:38.613Z,3.23
2019-03-16T12:53:09.645Z,3.43
2019-03-16T12:55:54.813Z,1.50
2019-03-16T12:58:28.580Z,2.30
2019-03-16T13:01:06.177Z,10.03
2019-03-16T13:03:50.244Z,2.13
2019-03-16T13:06:26.092Z,2.63
2019-03-16T13:09:01.760Z,2.57
2019-03-16T13:11:36.997Z,2.13
2019-03-16T13:14:18.688Z,24.23
2019-03-16T13:16:54.627Z,6.03
2019-03-16T13:19:26.321Z,2.47
2019-03-16T13:22:00.119Z,6.87
2019-03-16T13:24:35.533Z,6.93
2019-03-16T13:27:08.164Z,3.37
2019-03-16T13:29:45.162Z,3.13
2019-03-16T13:32:16.498Z,2.60
2019-03-16T13:34:47.374Z,3.70
2019-03-16T13:37:18.571Z,3.10
2019-03-16T13:39:52.374Z,4.07
2019-03-16T13:42:29.143Z,4.97
2019-03-16T13:45:06.429Z,3.73
2019-03-16T13:47:41.577Z,6.23
2019-03-16T13:50:13.556Z,2.90
2019-03-16T13:52:45.122Z,4.80
2019-03-16T13:55:21.700Z,4.57
2019-03-16T13:57:59.940Z,3.50
2019-03-16T14:00:40.515Z,3.30
2019-03-16T14:03:14.676Z,3.90
2019-03-16T14:05:47.552Z,6.97
2019-03-16T14:08:30.967Z,5.77
2019-03-16T14:11:02.654Z,4.13
2019-03-16T14:13:43.005Z,5.53
2019-03-16T14:16:16.507Z,2.87
2019-03-16T14:18:48.033Z,3.00
2019-03-16T14:21:19.538Z,2.77
2019-03-16T14:23:51.682Z,3.57
2019-03-16T14:26:32.214Z,2.37
2019-03-16T14:29:03.005Z,5.37
2019-03-16T14:31:35.659Z,2.30
2019-03-16T14:34:12.201Z,2.77
2019-03-16T14:36:46.834Z,2.67
2019-03-16T14:39:20.681Z,2.10
2019-03-16T14:41:52.131Z,2.87
2019-03-16T14:44:25.651Z,3.03
2019-03-16T14:46:56.473Z,2.10
2019-03-16T14:49:27.509Z,2.37
2019-03-16T14:51:59.005Z,4.53
2019-03-16T14:54:30.596Z,2.77
2019-03-16T14:57:05.570Z,2.30
2019-03-16T14:59:37.031Z,2.90
2019-03-16T15:02:10.304Z,2.60
2019-03-16T15:04:43.784Z,2.47
2019-03-16T15:07:17.711Z,2.13
2019-03-16T15:09:51.432Z,1.63
2019-03-16T15:12:22.640Z,2.30
2019-03-16T15:14:53.979Z,4.67
2019-03-16T15:17:27.932Z,1.90
2019-03-16T15:19:59.235Z,1.70
2019-03-16T15:22:30.207Z,2.37
2019-03-16T15:25:01.313Z,1.60
2019-03-16T15:27:32.134Z,1.57
2019-03-16T15:30:06.255Z,3.47
2019-03-16T15:32:37.160Z,2.17
2019-03-16T15:35:09.425Z,1.50
2019-03-16T15:37:40.625Z,1.50
2019-03-16T15:40:13.151Z,1.30
2019-03-16T15:42:44.587Z,1.70
2019-03-16T15:45:21.904Z,1.63
2019-03-16T15:47:52.757Z,1.93
2019-03-16T15:50:23.641Z,1.67
2019-03-16T15:52:58.028Z,2.60
2019-03-16T15:55:28.866Z,2.00
2019-03-16T15:58:08.660Z,2.10
2019-03-16T16:00:40.039Z,1.70
2019-03-16T16:03:11.380Z,1.60
2019-03-16T16:05:42.604Z,4.23
2019-03-16T16:08:13.987Z,2.03
2019-03-16T16:10:45.225Z,2.47
2019-03-16T16:13:18.099Z,2.00
2019-03-16T16:16:14.414Z,2.93
2019-03-16T16:19:21.774Z,1.43
2019-03-16T16:22:01.600Z,2.80
2019-03-16T16:24:35.409Z,1.77
2019-03-16T16:27:08.122Z,2.37
2019-03-16T16:29:41.455Z,1.50
2019-03-16T16:32:22.989Z,4.03
2019-03-16T16:34:54.118Z,2.70
2019-03-16T16:37:27.544Z,2.97
2019-03-16T16:40:03.341Z,1.93
2019-03-16T16:42:35.812Z,2.30
2019-03-16T16:45:07.780Z,1.80
2019-03-16T16:47:38.968Z,3.13
2019-03-16T16:50:12.520Z,1.60
2019-03-16T16:52:47.937Z,2.00
2019-03-16T16:55:21.282Z,4.90
2019-03-16T17:04:29.419Z,1.90
2019-03-16T17:07:03.833Z,1.83
2019-03-16T17:09:36.503Z,1.47
2019-03-16T17:12:12.336Z,2.03
2019-03-16T17:14:43.714Z,1.60
2019-03-16T17:17:20.446Z,1.40
2019-03-16T17:20:02.214Z,1.50
2019-03-16T17:22:37.486Z,2.07
2019-03-16T17:25:09.449Z,1.47
2019-03-16T17:27:44.081Z,2.03
2019-03-16T17:30:19.201Z,1.87
2019-03-16T17:32:50.170Z,1.30
2019-03-16T17:35:25.881Z,2.03
2019-03-16T17:37:57.157Z,1.63
2019-03-16T17:40:28.120Z,1.23
2019-03-16T17:43:01.629Z,1.83
2019-03-16T17:45:32.565Z,2.20
2019-03-16T17:48:03.702Z,1.90
2019-03-16T17:50:35.173Z,2.37
2019-03-16T17:53:10.362Z,2.23
2019-03-16T17:55:45.310Z,2.67
2019-03-16T17:58:16.723Z,2.40
2019-03-16T18:00:47.696Z,3.27
2019-03-16T18:03:18.866Z,1.87
2019-03-16T18:06:00.597Z,2.23
2019-03-16T18:08:42.004Z,1.93
2019-03-16T18:11:16.923Z,1.93
2019-03-16T18:13:48.295Z,3.93
2019-03-16T18:16:22.253Z,2.77
2019-03-16T18:18:53.069Z,2.13
2019-03-16T18:21:23.837Z,2.37
2019-03-16T18:23:54.650Z,2.77
2019-03-16T18:26:26.633Z,1.60
2019-03-16T18:29:00.347Z,2.00
2019-03-16T18:31:31.331Z,1.93
2019-03-16T18:34:07.100Z,1.70
2019-03-16T18:36:41.100Z,2.10
2019-03-16T18:39:12.010Z,1.70
2019-03-16T18:41:46.985Z,3.80
2019-03-16T18:44:22.145Z,1.80
2019-03-16T18:46:53.159Z,1.47
2019-03-16T18:49:33.431Z,1.70
2019-03-16T18:52:04.257Z,2.93
2019-03-16T18:54:38.643Z,1.90
2019-03-16T18:57:14.397Z,2.03
2019-03-16T18:59:54.250Z,1.90
2019-03-16T19:02:22.952Z,3.57
2019-03-16T19:04:54.234Z,2.33
2019-03-16T19:07:29.091Z,2.23
2019-03-16T19:10:04.809Z,1.60
2019-03-16T19:12:42.188Z,1.70
2019-03-16T19:15:16.685Z,2.30
2019-03-16T19:17:58.703Z,1.63
2019-03-16T19:20:28.127Z,1.77
2019-03-16T19:23:00.354Z,1.70
2019-03-16T19:25:32.505Z,1.50
2019-03-16T19:28:04.750Z,1.60
2019-03-16T19:30:38.386Z,1.33
2019-03-16T19:33:09.824Z,1.60
2019-03-16T19:35:46.470Z,1.60
2019-03-16T19:38:30.068Z,1.53
2019-03-16T19:41:05.209Z,1.43
2019-03-16T19:43:39.242Z,1.47
2019-03-16T19:46:11.894Z,2.17
2019-03-16T19:48:42.905Z,1.77
2019-03-16T19:51:15.864Z,1.60
2019-03-16T19:53:50.872Z,1.40
2019-03-16T19:56:21.709Z,1.50
2019-03-16T19:59:01.091Z,3.27
2019-03-16T20:01:35.039Z,1.77
2019-03-16T20:04:18.661Z,1.60
2019-03-16T20:06:53.723Z,1.23
2019-03-16T20:09:31.639Z,1.60
2019-03-16T20:12:07.293Z,1.50
2019-03-16T20:14:44.692Z,2.93
2019-03-16T20:17:15.548Z,1.30
2019-03-16T20:19:46.895Z,1.40
2019-03-16T20:22:26.079Z,1.30
2019-03-16T20:25:03.527Z,1.70
2019-03-16T20:27:34.706Z,1.37
2019-03-16T20:30:06.393Z,1.60
2019-03-16T20:32:37.389Z,1.40
2019-03-16T20:35:08.240Z,1.50
2019-03-16T20:37:39.058Z,1.37
2019-03-16T20:40:17.108Z,1.30
2019-03-16T20:42:57.185Z,1.53
2019-03-16T20:45:31.486Z,1.47
2019-03-16T20:48:18.340Z,1.40
2019-03-16T20:51:01.488Z,1.83
2019-03-16T20:53:39.021Z,1.50
2019-03-16T20:56:11.376Z,1.43
2019-03-16T20:58:46.077Z,1.37
2019-03-16T21:01:22.674Z,1.70
2019-03-16T21:03:55.423Z,1.20
2019-03-16T21:06:31.249Z,1.63
2019-03-16T21:09:03.680Z,1.60
2019-03-16T21:11:39.061Z,1.67
2019-03-16T21:14:16.327Z,3.20
2019-03-16T21:16:54.279Z,1.30
2019-03-16T21:19:34.102Z,1.37
2019-03-16T21:22:06.480Z,2.17
2019-03-16T21:24:40.714Z,2.13
2019-03-16T21:27:16.958Z,2.33
2019-03-16T21:29:52.409Z,1.50
2019-03-16T21:32:23.199Z,1.97
2019-03-16T21:35:03.799Z,2.53
2019-03-16T21:37:34.918Z,1.00
2019-03-16T21:40:08.769Z,1.30
2019-03-16T21:42:42.455Z,1.17
2019-03-16T21:45:15.027Z,1.13
2019-03-16T21:47:59.991Z,1.60
2019-03-16T21:50:33.199Z,1.00
2019-03-16T21:53:16.313Z,1.47
2019-03-16T21:58:42.899Z,1.27
2019-03-16T22:01:13.719Z,1.00
2019-03-16T22:04:03.689Z,1.23
2019-03-16T22:06:43.080Z,2.07
2019-03-16T22:09:14.165Z,1.30
2019-03-16T22:11:50.970Z,1.33
2019-03-16T22:14:22.194Z,4.93
2019-03-16T22:16:55.507Z,1.10
2019-03-16T22:19:37.239Z,1.10
2019-03-16T22:22:14.358Z,1.30
2019-03-16T22:24:45.244Z,1.30
2019-03-16T22:27:24.005Z,1.43
2019-03-16T22:29:54.788Z,1.70
2019-03-16T22:32:25.625Z,1.17
2019-03-16T22:34:57.322Z,1.30
2019-03-16T22:37:31.256Z,1.17
2019-03-16T22:40:03.942Z,1.50
2019-03-16T22:42:39.076Z,1.40
2019-03-16T22:45:13.159Z,1.40
2019-03-16T22:47:47.505Z,1.30
2019-03-16T22:50:18.624Z,1.63
2019-03-16T22:52:56.834Z,1.40
2019-03-16T22:55:28.167Z,1.47
2019-03-16T22:58:00.707Z,2.13
2019-03-16T23:00:47.597Z,1.37
2019-03-16T23:03:19.036Z,1.37
2019-03-16T23:05:50.570Z,1.37
2019-03-16T23:08:21.908Z,1.70
2019-03-16T23:10:52.860Z,1.47
2019-03-16T23:13:26.477Z,1.73
2019-03-16T23:15:57.845Z,1.50
2019-03-16T23:18:38.527Z,1.60
2019-03-16T23:21:12.411Z,2.73
2019-03-16T23:23:48.975Z,1.60
2019-03-16T23:26:20.210Z,1.60
2019-03-16T23:28:56.871Z,1.60
2019-03-16T23:31:28.036Z,1.53
2019-03-16T23:34:19.032Z,1.70
2019-03-16T23:36:41.944Z,2.07
2019-03-16T23:39:12.727Z,1.83
2019-03-16T23:41:43.991Z,1.97
2019-03-16T23:44:15.354Z,1.83
2019-03-16T23:46:51.302Z,1.73
2019-03-16T23:49:23.031Z,1.50
2019-03-16T23:51:56.341Z,1.70
2019-03-16T23:54:28.672Z,1.70
2019-03-16T23:56:59.531Z,1.50
2019-03-16T23:59:39.378Z,1.60
